Time;durP1;ratioP1;P1;durP2;ratioP2;P2;SDS_P1;SDS_P2;PMS_P1;PMS_P2;Temp;Humidity;BMP_temperature;BMP_pressure;BME280_temperature;BME280_humidity;BME280_pressure;Samples;Min_cycle;Max_cycle;Signal;HPM_P1;HPM_P2
2022/02/04 00:23:46;;;;;;;20.10;12.50;;;;;;;-142.75;100.00;77519.22;5029165;28;20036;-68
2022/02/04 00:26:19;;;;;;;17.17;11.35;;;;;;;-142.75;100.00;77519.22;5028969;28;20033;-67
2022/02/04 00:28:54;;;;;;;20.52;11.65;;;;;;;-142.75;100.00;77513.31;5027505;28;20025;-67
2022/02/04 00:31:37;;;;;;;18.50;10.77;;;;;;;-142.75;100.00;77515.28;5028885;28;20036;-67
2022/02/04 00:34:07;;;;;;;19.08;10.77;;;;;;;-142.75;100.00;77519.22;5029022;28;20025;-67
2022/02/04 00:37:07;;;;;;;16.88;9.35;;;;;;;-142.75;100.00;77511.34;5028608;28;20112;-67
2022/02/04 00:39:24;;;;;;;14.20;9.60;;;;;;;-142.75;100.00;77515.28;5028024;28;20032;-67
2022/02/04 00:41:50;;;;;;;16.40;9.70;;;;;;;-142.75;100.00;77523.16;5027247;28;20110;-67
2022/02/04 00:44:23;;;;;;;;;;;;;;;-142.75;100.00;77515.28;5029582;28;20052;-66
2022/02/04 00:49:24;;;;;;;16.02;9.13;;;;;;;-142.75;100.00;77519.22;5028664;28;20036;-67
2022/02/04 00:52:01;;;;;;;15.52;8.80;;;;;;;-142.75;100.00;77507.41;5028088;28;20052;-67
2022/02/04 01:26:33;;;;;;;12.00;7.90;;;;;;;-142.75;100.00;77499.53;5012914;28;20044;-67
2022/02/04 01:28:59;;;;;;;11.00;7.00;;;;;;;-142.75;100.00;77515.28;5012382;28;20034;-67
2022/02/04 01:31:24;;;;;;;15.30;8.30;;;;;;;-142.75;100.00;77503.47;5011218;28;20069;-67
2022/02/04 01:33:52;;;;;;;11.73;6.68;;;;;;;-142.75;100.00;77497.56;5012519;28;20635;-67
2022/02/04 01:36:18;;;;;;;15.63;7.18;;;;;;;-142.75;100.00;77495.59;5012459;28;20395;-67
2022/02/04 01:38:44;;;;;;;14.68;7.32;;;;;;;-142.75;100.00;77489.69;5012211;28;20037;-67
2022/02/04 01:41:10;;;;;;;12.75;6.97;;;;;;;-142.75;100.00;77491.66;5022402;28;20387;-66
2022/02/04 01:43:37;;;;;;;12.90;6.80;;;;;;;-142.75;100.00;77487.72;5032380;28;20032;-67
2022/02/04 01:46:05;;;;;;;10.27;6.40;;;;;;;-142.75;100.00;77489.69;5031959;28;20071;-67
2022/02/04 01:48:31;;;;;;;14.10;6.73;;;;;;;-142.75;100.00;77483.78;5030058;28;20486;-67
2022/02/04 01:50:58;;;;;;;10.83;6.03;;;;;;;-142.75;100.00;77485.75;5032354;28;20098;-68
2022/02/04 01:53:28;;;;;;;;;;;;;;;-142.75;100.00;77483.78;5031116;28;20022;-67
2022/02/04 01:55:55;;;;;;;10.53;5.87;;;;;;;-142.75;100.00;77475.91;5031814;28;19912;-67
2022/02/04 01:58:20;;;;;;;8.50;5.07;;;;;;;-142.75;100.00;77471.97;5031335;28;20032;-67
2022/02/04 02:00:46;;;;;;;11.48;5.47;;;;;;;-142.75;100.00;77464.09;5030483;28;20403;-67
2022/02/04 02:03:11;;;;;;;12.90;4.82;;;;;;;-142.75;100.00;77464.09;5031581;28;20053;-67
2022/02/04 02:05:36;;;;;;;8.55;4.93;;;;;;;-142.75;100.00;77462.13;5031687;28;20052;-67
2022/02/04 02:08:08;;;;;;;10.63;4.82;;;;;;;-142.75;100.00;77460.13;5030134;28;20032;-66
2022/02/04 02:10:33;;;;;;;10.13;4.70;;;;;;;-142.75;100.00;77460.13;5031583;28;20018;-67
2022/02/04 02:15:50;;;;;;;10.87;4.97;;;;;;;-142.75;100.00;77450.28;5031417;28;20041;-67
2022/02/04 02:43:04;;;;;;;11.13;5.37;;;;;;;-142.75;100.00;77434.53;5011314;28;20098;-66
2022/02/04 02:56:16;;;;;;;8.63;5.03;;;;;;;-142.75;100.00;77434.53;5011306;28;20030;-67
2022/02/04 02:58:35;;;;;;;9.27;5.07;;;;;;;-142.75;100.00;77428.63;5010371;28;20056;-67
2022/02/04 03:01:04;;;;;;;13.37;5.20;;;;;;;-142.75;100.00;77434.53;5011000;28;20018;-67
2022/02/04 03:03:32;;;;;;;9.90;5.00;;;;;;;-142.75;100.00;77430.59;5010775;28;20053;-67
2022/02/04 03:05:57;;;;;;;12.20;5.03;;;;;;;-142.75;100.00;77434.53;5010890;28;20026;-67
2022/02/04 03:08:23;;;;;;;9.48;5.03;;;;;;;-142.75;100.00;77426.66;5010501;28;20025;-68
2022/02/04 03:10:54;;;;;;;11.57;5.00;;;;;;;-142.75;100.00;77430.59;5010839;28;20026;-67
2022/02/04 03:13:28;;;;;;;11.53;5.17;;;;;;;-142.75;100.00;77422.72;5010826;28;20391;-67
2022/02/04 03:16:04;;;;;;;9.97;5.37;;;;;;;-142.75;100.00;77420.75;5010611;28;20030;-68
2022/02/04 03:18:34;;;;;;;8.48;4.45;;;;;;;-142.75;100.00;77418.78;5010269;28;20045;-67
2022/02/04 03:21:07;;;;;;;9.33;4.37;;;;;;;-142.75;100.00;77418.78;5011056;28;20049;-67
2022/02/04 03:23:35;;;;;;;7.67;4.23;;;;;;;-142.75;100.00;77410.91;5010607;28;20033;-66
2022/02/04 03:26:08;;;;;;;13.33;5.30;;;;;;;-142.75;100.00;77414.84;5010505;28;20032;-67
2022/02/04 03:28:34;;;;;;;8.07;4.53;;;;;;;-142.75;100.00;77416.81;5008737;28;20029;-67
2022/02/04 03:30:59;;;;;;;9.48;5.60;;;;;;;-142.75;100.00;77412.88;5008868;28;20026;-68
2022/02/04 03:33:28;;;;;;;9.20;5.20;;;;;;;-142.75;100.00;77408.94;5010473;28;20098;-67
2022/02/04 03:35:54;;;;;;;13.03;5.03;;;;;;;-142.75;100.00;77420.75;5010471;28;20273;-67
2022/02/04 03:38:19;;;;;;;9.15;4.63;;;;;;;-142.75;100.00;77420.75;5008670;28;20034;-67
2022/02/04 03:40:45;;;;;;;9.02;4.63;;;;;;;-142.75;100.00;77420.75;5010146;28;20037;-67
2022/02/04 03:43:10;;;;;;;12.30;4.95;;;;;;;-142.75;100.00;77420.75;5010060;28;20500;-67
2022/02/04 03:45:35;;;;;;;11.45;5.75;;;;;;;-142.75;100.00;77422.72;5010382;28;20037;-66
2022/02/04 03:48:01;;;;;;;7.95;4.47;;;;;;;-142.75;100.00;77434.53;5048891;22;20534;-68
2022/02/04 03:50:27;;;;;;;10.55;4.97;;;;;;;-142.75;100.00;77430.59;5048266;28;20025;-68
2022/02/04 03:52:52;;;;;;;;;;;;;;;-142.75;100.00;77430.59;5048421;28;20029;-68
2022/02/04 03:55:17;;;;;;;7.05;3.85;;;;;;;-142.75;100.00;77430.59;5048196;28;19969;-68
2022/02/04 03:57:43;;;;;;;9.32;4.25;;;;;;;-142.75;100.00;77432.56;5049319;28;20483;-68
2022/02/04 04:00:12;;;;;;;7.05;3.97;;;;;;;-142.75;100.00;77426.66;5049211;28;20524;-68
2022/02/04 04:02:37;;;;;;;7.33;4.10;;;;;;;-142.75;100.00;77426.66;5048155;28;20398;-66
2022/02/04 04:05:03;;;;;;;7.68;3.70;;;;;;;-142.75;100.00;77428.63;5049371;28;20024;-66
2022/02/04 04:07:29;;;;;;;11.38;3.40;;;;;;;-142.75;100.00;77418.78;5049239;28;20032;-67
2022/02/04 04:10:02;;;;;;;8.77;3.30;;;;;;;-142.75;100.00;77416.81;5047582;28;20040;-67
2022/02/04 04:12:27;;;;;;;8.00;3.57;;;;;;;-142.75;100.00;77410.91;5045359;28;20025;-67
2022/02/04 04:14:55;;;;;;;8.68;3.83;;;;;;;-142.75;100.00;77410.91;5049556;28;20039;-66
2022/02/04 04:17:20;;;;;;;8.70;2.70;;;;;;;-142.75;100.00;77405.00;5049102;28;20044;-66
2022/02/04 04:19:46;;;;;;;6.68;2.92;;;;;;;-142.75;100.00;77406.97;5048830;28;20498;-66
2022/02/04 04:22:11;;;;;;;9.82;3.38;;;;;;;-142.75;100.00;77408.94;5049844;28;20025;-66
2022/02/04 04:24:36;;;;;;;13.27;4.37;;;;;;;-142.75;100.00;77408.94;5049051;28;20371;-66
2022/02/04 04:27:02;;;;;;;6.63;2.92;;;;;;;-142.75;100.00;77412.88;5048923;28;20362;-66
2022/02/04 04:29:27;;;;;;;5.88;2.85;;;;;;;-142.75;100.00;77408.94;5048714;28;20052;-66
2022/02/04 04:31:53;;;;;;;6.43;2.70;;;;;;;-142.75;100.00;77416.81;5048626;28;20021;-66
2022/02/04 04:34:18;;;;;;;7.70;2.70;;;;;;;-142.75;100.00;77408.94;5048881;28;20024;-66
2022/02/04 04:36:44;;;;;;;5.38;2.53;;;;;;;-142.75;100.00;77410.91;5047801;28;20032;-66
2022/02/04 04:39:34;;;;;;;4.35;2.28;;;;;;;-142.75;100.00;77393.19;5047095;28;20020;-66
2022/02/04 04:42:14;;;;;;;4.97;2.60;;;;;;;-142.75;100.00;77399.09;5047184;28;20060;-66
2022/02/04 04:45:06;;;;;;;8.70;2.70;;;;;;;-142.75;100.00;77399.09;5048510;28;20167;-66
2022/02/04 05:31:08;;;;;;;6.30;2.70;;;;;;;-142.75;100.00;77361.69;5048601;28;20039;-67
2022/02/04 05:33:33;;;;;;;8.02;2.88;;;;;;;-142.75;100.00;77361.69;5046970;28;20413;-67
2022/02/04 05:36:00;;;;;;;4.97;2.27;;;;;;;-142.75;100.00;77357.75;5048134;28;20086;-67
2022/02/04 05:38:27;;;;;;;7.70;2.80;;;;;;;-142.75;100.00;77349.88;5047985;28;20278;-67
2022/02/04 05:40:53;;;;;;;5.00;2.27;;;;;;;-142.75;100.00;77338.06;5046934;28;20056;-67
2022/02/04 05:43:25;;;;;;;5.50;2.55;;;;;;;-142.75;100.00;77347.91;5046901;28;20091;-67
2022/02/04 05:45:57;;;;;;;7.67;3.17;;;;;;;-142.75;100.00;77343.97;5047070;28;20027;-67
2022/02/04 05:48:24;;;;;;;6.67;2.57;;;;;;;-142.75;100.00;77343.97;5045646;28;20056;-67
2022/02/04 05:53:23;;;;;;;6.40;2.67;;;;;;;-142.75;100.00;77330.19;5049613;28;20078;-67
2022/02/04 05:56:16;;;;;;;7.63;2.60;;;;;;;-142.75;100.00;77330.19;5051634;28;20047;-66
2022/02/04 05:58:53;;;;;;;7.20;3.10;;;;;;;-142.75;100.00;77343.97;5051443;28;20655;-67
2022/02/04 06:01:28;;;;;;;6.30;3.20;;;;;;;-142.75;100.00;77347.91;5051821;28;20064;-67
2022/02/04 06:04:07;;;;;;;9.77;3.43;;;;;;;-142.75;100.00;77342.00;5051728;28;20033;-67
2022/02/04 06:22:30;;;;;;;8.73;5.53;;;;;;;-142.75;100.00;77326.25;5051754;28;20036;-67
2022/02/04 06:24:56;;;;;;;7.18;5.10;;;;;;;-142.75;100.00;77334.13;5051211;28;20033;-67
2022/02/04 06:27:23;;;;;;;8.55;5.22;;;;;;;-142.75;100.00;77334.13;5051136;28;20028;-67
2022/02/04 06:29:50;;;;;;;9.53;5.53;;;;;;;-142.75;100.00;77338.06;5050587;28;20048;-67
2022/02/04 06:32:16;;;;;;;8.87;4.93;;;;;;;-142.75;100.00;77345.94;5051168;28;20064;-67
2022/02/04 06:34:42;;;;;;;7.23;4.40;;;;;;;-142.75;100.00;77343.97;5051331;28;20024;-68
2022/02/04 06:37:08;;;;;;;8.75;5.35;;;;;;;-142.75;100.00;77343.97;5049657;28;20033;-68
2022/02/04 06:39:33;;;;;;;9.43;4.75;;;;;;;-142.75;100.00;77340.03;5049407;28;20102;-68
2022/02/04 06:41:58;;;;;;;8.88;4.93;;;;;;;-142.75;100.00;77342.00;5049439;28;20025;-68
2022/02/04 06:44:24;;;;;;;10.20;5.20;;;;;;;-142.75;100.00;77334.13;5051080;28;20048;-67
2022/02/04 06:46:49;;;;;;;9.73;5.40;;;;;;;-142.75;100.00;77338.06;5050936;28;20036;-67
2022/02/04 06:49:14;;;;;;;7.95;5.05;;;;;;;-142.75;100.00;77340.03;5050590;28;20025;-68
2022/02/04 06:51:40;;;;;;;8.48;5.80;;;;;;;-142.75;100.00;77340.03;5051098;28;20028;-68
2022/02/04 06:54:05;;;;;;;9.35;4.75;;;;;;;-142.75;100.00;77338.06;5050416;28;20115;-68
2022/02/04 06:56:34;;;;;;;8.98;5.20;;;;;;;-142.75;100.00;77340.03;5050031;28;20112;-67
2022/02/04 06:59:00;;;;;;;9.93;5.43;;;;;;;-142.75;100.00;77336.09;5049507;28;20453;-68
2022/02/04 07:01:27;;;;;;;7.38;5.13;;;;;;;-142.75;100.00;77347.91;5049996;28;20096;-67
2022/02/04 07:03:52;;;;;;;10.73;5.63;;;;;;;-142.75;100.00;77340.03;5049693;28;20406;-67
2022/02/04 07:06:19;;;;;;;8.05;5.50;;;;;;;-142.75;100.00;77345.94;5049104;28;20041;-67
2022/02/04 07:21:45;;;;;;;11.53;7.50;;;;;;;-142.75;100.00;77349.88;5049351;28;20043;-69
2022/02/04 07:24:10;;;;;;;13.38;7.53;;;;;;;-142.75;100.00;77322.31;5048821;28;20025;-68
2022/02/04 07:26:35;;;;;;;11.68;7.55;;;;;;;-142.75;100.00;77334.13;5048425;28;20021;-68
2022/02/04 07:29:01;;;;;;;10.23;7.35;;;;;;;-142.75;100.00;77326.25;5046838;28;20039;-68
2022/02/04 07:31:29;;;;;;;10.63;8.13;;;;;;;-142.75;100.00;77330.19;5048508;28;20029;-69
2022/02/04 07:34:10;;;;;;;12.47;8.17;;;;;;;-142.75;100.00;77326.25;5048553;28;20433;-69
2022/02/04 07:41:47;;;;;;;11.95;8.40;;;;;;;-142.75;100.00;77310.50;5048366;28;20060;-69
2022/02/04 07:44:13;;;;;;;15.10;8.53;;;;;;;-142.75;100.00;77320.34;5048221;28;20020;-69
2022/02/04 07:46:38;;;;;;;;;;;;;;;-142.75;100.00;77306.56;5048791;28;20024;-69
2022/02/04 07:49:03;;;;;;;12.80;8.47;;;;;;;-142.75;100.00;77302.63;5047493;28;19965;-69
2022/02/04 07:51:29;;;;;;;14.98;8.82;;;;;;;-142.75;100.00;77302.63;5045063;28;20482;-69
2022/02/04 07:53:54;;;;;;;13.23;8.40;;;;;;;-142.75;100.00;77298.69;5049553;28;20051;-69
2022/02/04 07:56:22;;;;;;;11.68;8.32;;;;;;;-142.75;100.00;77310.50;5048517;28;20020;-68
2022/02/04 07:58:57;;;;;;;12.73;8.43;;;;;;;-142.75;100.00;77298.69;5049529;28;20074;-69
2022/02/04 08:01:27;;;;;;;13.37;8.90;;;;;;;-142.75;100.00;77294.75;5048920;28;20032;-69
2022/02/04 08:04:00;;;;;;;13.73;8.23;;;;;;;-142.75;100.00;77294.75;5049988;28;20048;-69
2022/02/04 08:06:27;;;;;;;12.87;7.80;;;;;;;-142.75;100.00;77275.06;5049969;28;20053;-69
2022/02/04 08:09:08;;;;;;;12.07;7.87;;;;;;;-142.75;100.00;77263.25;5051052;28;20440;-69
2022/02/04 08:11:54;;;;;;;10.27;7.63;;;;;;;-142.75;100.00;77257.34;5051229;28;20103;-69
2022/02/04 08:14:42;;;;;;;9.48;6.60;;;;;;;-142.75;100.00;77253.41;5049773;28;20456;-69
2022/02/04 08:20:12;;;;;;;9.83;6.73;;;;;;;-142.75;100.00;77239.63;5050884;28;20064;-69
2022/02/04 08:26:17;;;;;;;9.35;6.47;;;;;;;-142.75;100.00;77227.81;5051471;28;20037;-69
2022/02/04 08:49:37;;;;;;;11.50;6.57;;;;;;;-142.75;100.00;77206.16;5030589;28;20034;-69
2022/02/04 08:54:39;;;;;;;8.23;6.17;;;;;;;-142.75;100.00;77204.19;5030994;28;20380;-69
2022/02/04 08:57:11;;;;;;;10.03;6.57;;;;;;;-142.75;100.00;77217.97;5030742;28;20535;-69
2022/02/04 08:59:57;;;;;;;9.50;6.97;;;;;;;-142.75;100.00;77214.03;5030614;28;20024;-69
2022/02/04 09:02:35;;;;;;;10.20;6.93;;;;;;;-142.75;100.00;77212.06;5030791;28;20014;-69
2022/02/04 09:05:05;;;;;;;8.87;6.40;;;;;;;-142.75;100.00;77210.09;5030534;28;20029;-69
2022/02/04 09:07:44;;;;;;;11.13;7.87;;;;;;;-142.75;100.00;77208.13;5030769;28;20083;-69
2022/02/04 09:10:12;;;;;;;12.30;7.77;;;;;;;-142.75;100.00;77200.25;5030382;28;20079;-69
2022/02/04 09:20:41;;;;;;;10.35;6.05;;;;;;;-142.75;100.00;77166.78;5030519;28;20037;-69
2022/02/04 09:23:10;;;;;;;9.93;6.72;;;;;;;-142.75;100.00;77156.94;5030591;28;20017;-67
2022/02/04 09:25:36;;;;;;;9.73;7.03;;;;;;;-142.75;100.00;77188.44;5031150;28;20482;-68
2022/02/04 09:28:02;;;;;;;10.82;6.57;;;;;;;-142.75;100.00;77180.56;5051085;28;20100;-66
2022/02/04 09:30:29;;;;;;;11.65;6.80;;;;;;;-142.75;100.00;77153.00;5054344;28;20028;-69
2022/02/04 09:32:54;;;;;;;12.70;6.80;;;;;;;-142.75;100.00;77156.94;5054162;28;20029;-69
2022/02/04 09:35:22;;;;;;;11.18;6.45;;;;;;;-142.75;100.00;77154.97;5053845;28;20028;-69
2022/02/04 09:37:48;;;;;;;7.20;5.43;;;;;;;-142.75;100.00;77154.97;5048615;28;20451;-68
2022/02/04 09:40:14;;;;;;;7.65;5.63;;;;;;;-142.75;100.00;77147.09;5034118;28;20033;-69
2022/02/04 09:42:40;;;;;;;8.57;5.73;;;;;;;-142.75;100.00;77139.22;5034331;28;20445;-69
2022/02/04 09:45:10;;;;;;;;;;;;;;;-142.75;100.00;77139.22;5034579;28;20030;-69
2022/02/04 09:47:37;;;;;;;9.07;5.67;;;;;;;-142.75;100.00;77129.38;5033852;28;19992;-69
2022/02/04 09:50:10;;;;;;;7.50;5.40;;;;;;;-142.75;100.00;77129.38;5033691;28;20045;-69
2022/02/04 10:09:33;;;;;;;6.43;4.23;;;;;;;-142.75;100.00;77052.59;5033347;28;20452;-69
2022/02/04 10:17:07;;;;;;;6.10;3.88;;;;;;;-142.75;100.00;77028.97;5033588;28;20037;-69
2022/02/04 10:22:03;;;;;;;6.83;4.43;;;;;;;-142.75;100.00;77044.72;5033779;28;20116;-69
2022/02/04 10:24:30;;;;;;;7.47;4.22;;;;;;;-142.75;100.00;77046.69;5033359;28;20108;-69
2022/02/04 10:27:16;;;;;;;6.32;4.55;;;;;;;-142.75;100.00;77060.47;5048782;28;20028;-69
2022/02/04 10:29:57;;;;;;;5.50;3.73;;;;;;;-142.75;100.00;77060.47;5052996;28;20025;-68
2022/02/04 10:32:25;;;;;;;6.77;4.03;;;;;;;-142.75;100.00;77072.28;5050422;28;20025;-69
2022/02/04 10:35:03;;;;;;;5.82;4.05;;;;;;;-142.75;100.00;77068.34;5051641;28;20029;-68
2022/02/04 10:37:31;;;;;;;5.63;4.13;;;;;;;-142.75;100.00;77070.31;5051760;28;20116;-69
2022/02/04 10:40:14;;;;;;;5.50;4.20;;;;;;;-142.75;100.00;77048.66;5051589;28;20025;-69
2022/02/04 10:45:45;;;;;;;4.37;3.67;;;;;;;-142.75;100.00;77054.56;5051777;28;20051;-69
2022/02/04 10:54:06;;;;;;;6.53;3.43;;;;;;;-142.75;100.00;77027.00;5052871;28;20410;-67
2022/02/04 11:10:46;;;;;;;4.30;3.17;;;;;;;-142.75;100.00;76975.81;4953836;28;20030;-67
2022/02/04 11:30:52;;;;;;;6.70;2.90;;;;;;;-142.75;100.00;76977.78;4994328;28;20081;-68
2022/02/04 11:36:12;;;;;;;6.00;4.35;;;;;;;-142.75;100.00;76965.97;4993765;28;20042;-68
2022/02/04 11:51:03;;;;;;;5.32;3.03;;;;;;;-142.75;100.00;76942.34;4993247;28;20510;-67
2022/02/04 11:53:34;;;;;;;8.38;3.60;;;;;;;-142.75;100.00;76924.63;4992738;28;20117;-67
2022/02/04 11:56:00;;;;;;;5.00;3.55;;;;;;;-142.75;100.00;76934.47;4993133;28;20022;-67
2022/02/04 11:58:26;;;;;;;5.47;3.45;;;;;;;-142.75;100.00;76936.44;4992709;28;20396;-68
2022/02/04 12:01:04;;;;;;;6.47;3.33;;;;;;;-142.75;100.00;76916.75;4993040;28;20035;-68
2022/02/04 12:03:38;;;;;;;11.13;3.20;;;;;;;-142.75;100.00;76912.81;4992801;28;20022;-68
2022/02/04 12:06:04;;;;;;;6.63;3.27;;;;;;;-142.75;100.00;76912.81;4993046;28;20026;-67
2022/02/04 12:08:33;;;;;;;8.80;3.20;;;;;;;-142.75;100.00;76902.97;4992703;28;20044;-68
2022/02/04 12:11:01;;;;;;;4.75;2.60;;;;;;;-142.75;100.00;76901.00;4975306;28;20026;-67
2022/02/04 12:13:27;;;;;;;10.10;3.30;;;;;;;-142.75;100.00;76901.00;4992583;28;20432;-67
2022/02/04 12:16:10;;;;;;;4.72;2.97;;;;;;;-142.75;100.00;76895.09;4975364;28;20400;-68
2022/02/04 12:18:43;;;;;;;5.70;3.35;;;;;;;-142.75;100.00;76891.16;4975056;28;20046;-67
2022/02/04 12:21:12;;;;;;;4.65;3.00;;;;;;;-142.75;100.00;76891.16;4975218;28;20088;-68
2022/02/04 12:23:46;;;;;;;5.90;3.08;;;;;;;-142.75;100.00;76899.03;4992514;28;20034;-68
2022/02/04 12:26:17;;;;;;;8.37;3.20;;;;;;;-142.75;100.00;76916.75;4975342;28;20116;-67
2022/02/04 12:29:03;;;;;;;5.90;3.37;;;;;;;-142.75;100.00;76926.59;4991315;28;20030;-68
2022/02/04 12:31:36;;;;;;;5.60;3.10;;;;;;;-142.75;100.00;76930.53;4974529;28;20034;-67
2022/02/04 12:34:01;;;;;;;6.30;3.35;;;;;;;-142.75;100.00;76928.56;4996580;28;20041;-67
2022/02/04 12:36:33;;;;;;;4.97;3.10;;;;;;;-142.75;100.00;76940.38;5012273;28;20030;-67
2022/02/04 12:39:20;;;;;;;7.90;3.50;;;;;;;-142.75;100.00;76942.34;4994226;28;20109;-66
2022/02/04 12:41:48;;;;;;;10.13;3.88;;;;;;;-142.75;100.00;76952.19;5012028;28;20034;-67
2022/02/04 12:44:17;;;;;;;7.70;3.87;;;;;;;-142.75;100.00;76977.78;5003268;28;20076;-67
2022/02/04 12:46:48;;;;;;;8.97;4.33;;;;;;;-142.75;100.00;76969.91;4992632;28;20030;-66
2022/02/04 12:49:19;;;;;;;7.67;4.50;;;;;;;-142.75;100.00;76960.06;4974842;28;20014;-67
2022/02/04 12:54:29;;;;;;;7.93;4.40;;;;;;;-142.75;100.00;76971.88;4992029;28;20038;-67
2022/02/04 13:08:14;;;;;;;10.30;4.60;;;;;;;-142.75;100.00;76979.75;4996301;28;20511;-67
2022/02/04 13:10:41;;;;;;;10.87;5.30;;;;;;;-142.75;100.00;76991.56;4978821;28;20377;-66
2022/02/04 13:13:11;;;;;;;8.33;5.10;;;;;;;-142.75;100.00;76987.63;4994725;28;20440;-67
2022/02/04 13:15:39;;;;;;;10.27;4.93;;;;;;;-142.75;100.00;76989.59;4995986;28;20041;-67
2022/02/04 13:18:07;;;;;;;10.07;6.20;;;;;;;-142.75;100.00;76985.66;4995800;28;20022;-67
2022/02/04 13:20:34;;;;;;;8.13;4.93;;;;;;;-142.75;100.00;76995.50;4978762;28;20041;-67
2022/02/04 13:23:08;;;;;;;9.63;4.47;;;;;;;-142.75;100.00;76985.66;4978399;28;20022;-67
2022/02/04 13:25:36;;;;;;;8.60;5.53;;;;;;;-142.75;100.00;77019.13;4996064;28;20026;-67
2022/02/04 13:28:22;;;;;;;4.93;1.70;;;;;;;-142.75;100.00;77156.94;4976596;28;20014;-67
2022/02/04 13:31:01;;;;;;;1.47;0.70;;;;;;;-142.75;100.00;77239.63;4978509;28;20100;-67
2022/02/04 13:33:29;;;;;;;3.60;0.70;;;;;;;-142.75;100.00;77302.63;4992640;28;20084;-67
2022/02/04 13:36:05;;;;;;;3.20;0.50;;;;;;;-142.75;100.00;77347.91;4985173;28;20081;-67
2022/02/04 13:38:40;;;;;;;1.43;0.50;;;;;;;-142.75;100.00;77375.47;4985239;28;20424;-67
2022/02/04 13:41:21;;;;;;;2.77;0.50;;;;;;;-142.75;100.00;77377.44;4985002;28;20018;-67
2022/02/04 13:44:17;;;;;;;4.73;0.40;;;;;;;-142.75;100.00;77403.03;4985051;28;20070;-66
2022/02/04 13:47:03;;;;;;;3.87;0.40;;;;;;;-142.75;100.00;77393.19;4995476;28;20042;-67
2022/02/04 13:52:20;;;;;;;2.07;0.50;;;;;;;-142.75;100.00;77401.06;4987032;28;20027;-67
2022/02/04 13:57:31;;;;;;;0.87;0.30;;;;;;;-142.75;100.00;77450.28;4984877;28;20073;-67
2022/02/04 14:02:44;;;;;;;2.23;0.40;;;;;;;-142.75;100.00;77483.78;4995271;28;20038;-68
2022/02/04 14:05:10;;;;;;;2.70;0.20;;;;;;;-142.75;100.00;77511.34;4970140;28;20544;-68
2022/02/04 14:07:42;;;;;;;0.63;0.37;;;;;;;-142.75;100.00;77521.19;4989832;28;20045;-69
2022/02/04 14:10:31;;;;;;;1.30;0.57;;;;;;;-142.75;100.00;77531.03;4977689;28;20042;-69
2022/02/04 14:13:11;;;;;;;1.17;0.30;;;;;;;-142.75;100.00;77542.84;4978495;28;20086;-69
2022/02/04 14:15:39;;;;;;;0.80;0.20;;;;;;;-142.75;100.00;77546.78;4981627;28;20048;-67
2022/02/04 14:18:11;;;;;;;0.80;0.33;;;;;;;-142.75;100.00;77540.88;4977374;28;20118;-67
2022/02/04 14:20:42;;;;;;;1.70;0.20;;;;;;;-142.75;100.00;77560.56;4977673;28;20023;-67
2022/02/04 14:23:11;;;;;;;0.50;0.30;;;;;;;-142.75;100.00;77550.72;4994566;28;20018;-67
2022/02/04 14:25:56;;;;;;;2.37;0.47;;;;;;;-142.75;100.00;77554.66;4995001;28;20443;-67
2022/02/04 14:28:33;;;;;;;2.10;0.30;;;;;;;-142.75;100.00;77527.09;4994721;28;20105;-68
2022/02/04 14:31:09;;;;;;;1.17;0.40;;;;;;;-142.75;100.00;77515.28;4977533;28;20022;-68
2022/02/04 14:52:39;;;;;;;1.97;0.30;;;;;;;-142.75;100.00;77590.09;4975098;28;20101;-68
2022/02/04 15:03:15;;;;;;;2.53;0.40;;;;;;;-142.75;100.00;77607.81;4994164;28;20129;-67
2022/02/04 15:05:59;;;;;;;1.70;0.30;;;;;;;-142.75;100.00;77631.44;4994470;28;20087;-67
2022/02/04 15:08:24;;;;;;;1.27;0.40;;;;;;;-142.75;100.00;77647.19;4994131;28;20026;-67
2022/02/04 15:10:50;;;;;;;3.50;0.50;;;;;;;-142.75;100.00;77633.41;4976782;28;20030;-67
2022/02/04 15:13:16;;;;;;;3.83;0.68;;;;;;;-142.75;100.00;77657.03;4993955;28;20041;-67
2022/02/04 15:15:42;;;;;;;4.50;0.40;;;;;;;-142.75;100.00;77651.13;4994121;28;20038;-68
2022/02/04 15:18:08;;;;;;;3.28;0.73;;;;;;;-142.75;100.00;77668.84;4984320;28;20417;-67
2022/02/04 15:20:34;;;;;;;1.08;0.40;;;;;;;-142.75;100.00;77682.63;4969157;28;20038;-67
2022/02/04 15:22:59;;;;;;;;;;;;;;;-142.75;100.00;77680.66;4982933;28;20026;-68
2022/02/04 15:25:25;;;;;;;2.50;0.60;;;;;;;-142.75;100.00;77678.69;4983931;28;19910;-67
2022/02/04 15:28:15;;;;;;;2.25;0.60;;;;;;;-142.75;100.00;77694.44;4982924;28;20027;-67
2022/02/04 15:30:44;;;;;;;2.37;0.47;;;;;;;-142.75;100.00;77694.44;4984650;28;20068;-67
2022/02/04 15:33:10;;;;;;;4.90;0.67;;;;;;;-142.75;100.00;77704.28;4983016;28;20500;-66
2022/02/04 15:35:36;;;;;;;3.92;0.50;;;;;;;-142.75;100.00;77716.09;4983159;28;20022;-67
2022/02/04 15:38:01;;;;;;;3.65;0.43;;;;;;;-142.75;100.00;77741.72;4966811;28;20102;-68
2022/02/04 15:40:27;;;;;;;3.13;0.60;;;;;;;-142.75;100.00;77741.72;4979175;28;20037;-67
2022/02/04 15:42:58;;;;;;;1.13;0.40;;;;;;;-142.75;100.00;77741.72;4956762;28;20389;-67
2022/02/04 16:01:21;;;;;;;4.00;0.63;;;;;;;-142.75;100.00;77779.13;4979843;28;20027;-67
2022/02/04 16:06:38;;;;;;;2.90;0.93;;;;;;;-142.75;100.00;77794.88;4936633;28;20033;-67
2022/02/04 16:09:03;;;;;;;1.60;0.60;;;;;;;-142.75;100.00;77794.88;4973433;28;20018;-67
2022/02/04 16:14:29;;;;;;;8.07;1.00;;;;;;;-142.75;100.00;77814.56;4976318;28;20129;-66
2022/02/04 16:16:56;;;;;;;5.00;0.87;;;;;;;-142.75;100.00;77822.44;4983662;28;20065;-69
2022/02/04 16:29:53;;;;;;;6.57;1.33;;;;;;;-142.75;100.00;77871.66;4979002;28;20041;-67
2022/02/04 16:32:18;;;;;;;12.25;1.52;;;;;;;-142.75;100.00;77881.50;4978244;28;20023;-68
2022/02/04 16:34:51;;;;;;;6.93;1.23;;;;;;;-142.75;100.00;77877.56;4991796;28;20451;-67
2022/02/04 16:37:18;;;;;;;10.90;1.43;;;;;;;-142.75;100.00;77879.53;4989865;28;20022;-67
2022/02/04 16:39:46;;;;;;;6.87;1.30;;;;;;;-142.75;100.00;77879.53;4986939;28;20022;-67
2022/02/04 16:42:15;;;;;;;3.47;1.20;;;;;;;-142.75;100.00;77875.59;4992932;28;20019;-67
2022/02/04 16:44:41;;;;;;;8.27;1.57;;;;;;;-142.75;100.00;77875.59;4992803;28;20022;-67
2022/02/04 16:47:08;;;;;;;9.97;2.03;;;;;;;-142.75;100.00;77883.47;4991945;28;20026;-68
2022/02/04 16:49:34;;;;;;;15.90;2.30;;;;;;;-142.75;100.00;77885.44;4992316;28;20037;-67
2022/02/04 16:52:00;;;;;;;11.30;1.80;;;;;;;-142.75;100.00;77877.56;4992488;28;20428;-67
2022/02/04 16:54:28;;;;;;;8.45;1.70;;;;;;;-142.75;100.00;77889.38;4992523;28;20030;-67
2022/02/04 16:56:54;;;;;;;13.67;1.90;;;;;;;-142.75;100.00;77881.50;4989211;28;20026;-67
2022/02/04 16:59:20;;;;;;;11.60;2.47;;;;;;;-142.75;100.00;77893.31;4973037;28;20081;-67
2022/02/04 17:01:46;;;;;;;10.93;3.00;;;;;;;-142.75;100.00;77881.50;4955932;28;20030;-67
2022/02/04 17:04:12;;;;;;;9.32;1.58;;;;;;;-142.75;100.00;77883.47;5024696;22;20045;-68
2022/02/04 17:06:42;;;;;;;11.27;2.00;;;;;;;-142.75;100.00;77869.69;5029940;28;20467;-68
2022/02/04 17:11:42;;;;;;;5.50;1.60;;;;;;;-142.75;100.00;77865.75;5031789;28;20037;-68
2022/02/04 17:14:07;;;;;;;7.87;2.20;;;;;;;-142.75;100.00;77857.88;5031507;28;20083;-68
2022/02/04 17:16:33;;;;;;;13.88;2.13;;;;;;;-142.75;100.00;77865.75;5031528;28;20018;-68
2022/02/04 17:18:58;;;;;;;9.23;2.83;;;;;;;-142.75;100.00;77873.63;5031317;28;20112;-67
2022/02/04 17:21:25;;;;;;;10.02;2.00;;;;;;;-142.75;100.00;77881.50;5031434;28;20276;-68
2022/02/04 17:23:52;;;;;;;7.63;2.10;;;;;;;-142.75;100.00;77877.56;5031275;28;20565;-67
2022/02/04 17:26:20;;;;;;;8.10;2.30;;;;;;;-142.75;100.00;77879.53;5031407;28;20024;-68
2022/02/04 17:28:45;;;;;;;14.63;2.60;;;;;;;-142.75;100.00;77877.56;5031198;28;20017;-68
2022/02/04 17:31:11;;;;;;;6.32;2.10;;;;;;;-142.75;100.00;77875.59;5031495;28;20430;-67
2022/02/04 17:33:38;;;;;;;8.40;2.10;;;;;;;-142.75;100.00;77875.59;5031279;28;20113;-68
2022/02/04 17:36:04;;;;;;;6.97;2.20;;;;;;;-142.75;100.00;77881.50;5008548;28;20064;-68